Time;durP1;ratioP1;P1;durP2;ratioP2;P2;SDS_P1;SDS_P2;PMS_P1;PMS_P2;Temp;Humidity;BMP_temperature;BMP_pressure;BME280_temperature;BME280_humidity;BME280_pressure;Samples;Min_cycle;Max_cycle;Signal;HPM_P1;HPM_P2
2024/03/20 00:00:54;;;;;;;5.90;5.30;;;;;;;;;;6243752;22;20248;-49
2024/03/20 00:03:26;;;;;;;5.18;4.68;;;;;;;;;;6244352;23;20232;-49
2024/03/20 00:05:54;;;;;;;5.80;4.90;;;;;;;;;;6244592;23;20157;-47
2024/03/20 00:08:21;;;;;;;4.50;4.10;;;;;;;;;;6244118;22;20199;-47
2024/03/20 00:10:49;;;;;;;5.97;4.97;;;;;;;;;;6243838;22;20244;-50
2024/03/20 00:13:17;;;;;;;6.68;5.22;;;;;;;;;;6244260;22;20177;-50
2024/03/20 00:15:45;;;;;;;5.43;4.93;;;;;;;;;;6244353;22;20240;-53
2024/03/20 00:18:14;;;;;;;6.00;4.63;;;;;;;;;;6244075;22;20215;-49
2024/03/20 00:20:41;;;;;;;4.63;4.22;;;;;;;;;;6244780;23;20507;-47
2024/03/20 00:23:09;;;;;;;5.28;4.68;;;;;;;;;;6244346;22;20177;-52
2024/03/20 00:25:36;;;;;;;6.40;5.07;;;;;;;;;;6244035;22;20263;-51
2024/03/20 00:28:04;;;;;;;4.82;4.25;;;;;;;;;;6243912;22;20193;-47
2024/03/20 00:30:32;;;;;;;4.63;4.13;;;;;;;;;;6244117;22;20172;-51
2024/03/20 00:33:00;;;;;;;5.03;4.47;;;;;;;;;;6243919;22;20173;-49
2024/03/20 00:35:27;;;;;;;5.53;4.75;;;;;;;;;;6244080;22;20252;-49
2024/03/20 00:37:55;;;;;;;7.53;4.40;;;;;;;;;;6244156;22;20197;-46
2024/03/20 00:40:23;;;;;;;5.03;4.50;;;;;;;;;;6243847;22;20173;-47
2024/03/20 00:42:51;;;;;;;5.43;3.95;;;;;;;;;;6243592;22;20518;-47
2024/03/20 00:45:18;;;;;;;3.90;3.47;;;;;;;;;;6243515;22;20197;-48
2024/03/20 00:47:47;;;;;;;6.30;4.25;;;;;;;;;;6243716;22;20703;-47
2024/03/20 00:50:14;;;;;;;4.60;4.20;;;;;;;;;;6243983;22;20652;-47
2024/03/20 00:52:42;;;;;;;5.28;3.90;;;;;;;;;;6243830;22;20173;-49
2024/03/20 00:55:10;;;;;;;4.50;4.03;;;;;;;;;;6243358;22;20187;-52
2024/03/20 00:57:38;;;;;;;5.28;4.20;;;;;;;;;;6244107;22;20193;-51
2024/03/20 01:00:07;;;;;;;6.38;4.50;;;;;;;;;;6244207;22;20173;-48
2024/03/20 01:02:34;;;;;;;4.72;4.20;;;;;;;;;;6243857;22;20179;-48
2024/03/20 01:05:03;;;;;;;4.30;3.90;;;;;;;;;;6243547;22;20196;-49
2024/03/20 01:07:31;;;;;;;4.82;4.28;;;;;;;;;;6243176;22;20727;-48
2024/03/20 01:09:59;;;;;;;4.88;4.40;;;;;;;;;;6243944;22;20187;-46
2024/03/20 01:12:26;;;;;;;5.63;5.07;;;;;;;;;;6243615;22;20177;-50
2024/03/20 01:14:54;;;;;;;7.85;5.32;;;;;;;;;;6244294;22;20169;-48
2024/03/20 01:17:21;;;;;;;11.57;5.93;;;;;;;;;;6245636;22;20200;-47
2024/03/20 01:19:48;;;;;;;5.65;4.65;;;;;;;;;;6245863;22;20177;-48
2024/03/20 01:22:17;;;;;;;5.47;4.78;;;;;;;;;;6245707;22;20554;-47
2024/03/20 01:24:45;;;;;;;5.60;5.10;;;;;;;;;;6245944;22;20277;-50
2024/03/20 01:27:12;;;;;;;5.50;4.47;;;;;;;;;;6246016;22;20193;-53
2024/03/20 01:29:40;;;;;;;6.07;4.93;;;;;;;;;;6245900;22;20183;-52
2024/03/20 01:32:08;;;;;;;5.53;5.00;;;;;;;;;;6246100;22;20207;-50
2024/03/20 01:34:35;;;;;;;4.30;3.90;;;;;;;;;;6245956;22;20201;-48
2024/03/20 01:37:03;;;;;;;3.67;3.38;;;;;;;;;;6245170;22;20179;-47
2024/03/20 01:39:31;;;;;;;7.93;5.18;;;;;;;;;;6245527;22;20181;-47
2024/03/20 01:41:58;;;;;;;5.70;5.20;;;;;;;;;;6245553;22;20172;-49
2024/03/20 01:44:26;;;;;;;8.13;5.45;;;;;;;;;;6245313;22;20197;-49
2024/03/20 01:46:54;;;;;;;10.60;5.68;;;;;;;;;;6245562;22;20172;-48
2024/03/20 01:49:21;;;;;;;5.38;4.88;;;;;;;;;;6245748;22;20177;-49
2024/03/20 01:51:49;;;;;;;7.57;4.82;;;;;;;;;;6245805;22;20177;-49
2024/03/20 01:54:17;;;;;;;6.72;4.90;;;;;;;;;;6245639;22;20548;-53
2024/03/20 01:56:47;;;;;;;7.28;5.63;;;;;;;;;;6245879;22;20173;-49
2024/03/20 01:59:14;;;;;;;7.82;5.68;;;;;;;;;;6246624;23;20158;-50
2024/03/20 02:01:42;;;;;;;5.00;4.50;;;;;;;;;;6245484;22;20213;-52
2024/03/20 02:04:09;;;;;;;5.72;5.13;;;;;;;;;;6245490;22;20176;-47
2024/03/20 02:06:37;;;;;;;5.90;5.25;;;;;;;;;;6245127;22;20177;-54
2024/03/20 02:09:04;;;;;;;5.70;4.88;;;;;;;;;;6245028;22;20193;-55
2024/03/20 02:11:32;;;;;;;4.35;3.95;;;;;;;;;;6245332;22;20208;-52
2024/03/20 02:14:02;;;;;;;5.40;4.90;;;;;;;;;;6245191;22;20231;-50
2024/03/20 02:16:30;;;;;;;5.10;4.70;;;;;;;;;;6245512;23;20688;-50
2024/03/20 02:18:57;;;;;;;4.30;4.00;;;;;;;;;;6244632;22;20193;-50
2024/03/20 02:21:26;;;;;;;4.15;3.72;;;;;;;;;;6245075;22;20183;-52
2024/03/20 02:23:54;;;;;;;4.40;3.92;;;;;;;;;;6244654;22;20175;-49
2024/03/20 02:26:21;;;;;;;3.40;3.10;;;;;;;;;;6244699;22;20225;-50
2024/03/20 02:28:49;;;;;;;4.63;3.30;;;;;;;;;;6244591;22;20712;-48
2024/03/20 02:31:16;;;;;;;3.88;3.47;;;;;;;;;;6244307;22;20173;-54
2024/03/20 02:33:45;;;;;;;3.85;3.55;;;;;;;;;;6244308;22;20180;-55
2024/03/20 02:36:12;;;;;;;4.18;3.80;;;;;;;;;;6244880;23;20244;-52
2024/03/20 02:38:41;;;;;;;3.53;3.22;;;;;;;;;;6244974;22;20271;-54
2024/03/20 02:41:10;;;;;;;4.85;4.35;;;;;;;;;;6245142;22;20185;-54
2024/03/20 02:43:38;;;;;;;3.65;3.35;;;;;;;;;;6245039;23;20177;-52
2024/03/20 02:46:05;;;;;;;4.25;3.85;;;;;;;;;;6244560;22;20193;-50
2024/03/20 02:48:34;;;;;;;4.38;3.60;;;;;;;;;;6244928;22;20201;-52
2024/03/20 02:51:02;;;;;;;4.63;4.22;;;;;;;;;;6245088;23;20177;-53
2024/03/20 02:53:30;;;;;;;5.38;4.57;;;;;;;;;;6244570;23;20532;-51
2024/03/20 02:55:58;;;;;;;4.60;4.20;;;;;;;;;;6244868;22;20180;-49
2024/03/20 02:58:26;;;;;;;3.97;3.58;;;;;;;;;;6244767;22;20196;-49
2024/03/20 03:00:53;;;;;;;4.40;4.00;;;;;;;;;;6244462;22;20173;-51
2024/03/20 03:03:21;;;;;;;4.28;3.85;;;;;;;;;;6244357;22;20180;-50
2024/03/20 03:05:48;;;;;;;4.43;4.03;;;;;;;;;;6244485;22;20680;-50
2024/03/20 03:08:15;;;;;;;3.47;3.17;;;;;;;;;;6243935;22;20196;-49
2024/03/20 03:10:43;;;;;;;4.95;3.88;;;;;;;;;;6244632;22;20183;-50
2024/03/20 03:13:12;;;;;;;3.92;3.40;;;;;;;;;;6243951;22;20195;-55
2024/03/20 03:15:39;;;;;;;4.65;4.25;;;;;;;;;;6244486;22;20169;-52
2024/03/20 03:18:06;;;;;;;4.00;3.70;;;;;;;;;;6244571;22;20193;-53
2024/03/20 03:20:34;;;;;;;4.03;3.63;;;;;;;;;;6243678;22;20658;-54
2024/03/20 03:23:02;;;;;;;4.45;4.05;;;;;;;;;;6243749;22;20180;-49
2024/03/20 03:25:29;;;;;;;3.53;3.22;;;;;;;;;;6244216;22;20279;-54
2024/03/20 03:27:57;;;;;;;3.95;3.53;;;;;;;;;;6244178;22;20202;-54
2024/03/20 03:30:26;;;;;;;3.78;3.42;;;;;;;;;;6244201;22;20188;-49
2024/03/20 03:32:53;;;;;;;4.05;3.65;;;;;;;;;;6244212;22;20256;-50
2024/03/20 03:35:23;;;;;;;3.22;2.92;;;;;;;;;;6244211;22;20255;-54
2024/03/20 03:37:50;;;;;;;5.13;3.45;;;;;;;;;;6244582;23;20197;-50
2024/03/20 03:40:18;;;;;;;3.75;3.22;;;;;;;;;;6244343;22;20184;-49
2024/03/20 03:42:45;;;;;;;4.00;3.60;;;;;;;;;;6243751;22;20614;-52
2024/03/20 03:45:13;;;;;;;4.95;4.47;;;;;;;;;;6243907;22;20173;-49
2024/03/20 03:47:42;;;;;;;4.57;4.15;;;;;;;;;;6244532;23;20197;-50
2024/03/20 03:50:10;;;;;;;3.22;2.80;;;;;;;;;;6244567;22;20180;-51
2024/03/20 03:52:40;;;;;;;4.80;4.40;;;;;;;;;;6244071;22;20216;-54
2024/03/20 03:55:08;;;;;;;5.50;5.00;;;;;;;;;;6244108;23;20574;-53
2024/03/20 03:57:36;;;;;;;5.22;4.70;;;;;;;;;;6243662;22;20271;-55
2024/03/20 04:00:06;;;;;;;6.20;5.43;;;;;;;;;;6243698;22;20173;-53
2024/03/20 04:02:33;;;;;;;6.05;5.45;;;;;;;;;;6244101;23;20502;-51
2024/03/20 04:05:04;;;;;;;5.10;4.60;;;;;;;;;;6244419;22;20173;-51
2024/03/20 04:07:31;;;;;;;5.80;4.20;;;;;;;;;;6244128;23;20228;-53
2024/03/20 04:09:59;;;;;;;4.15;3.65;;;;;;;;;;6244069;22;20173;-55
2024/03/20 04:12:26;;;;;;;4.43;3.60;;;;;;;;;;6243378;22;20177;-52
2024/03/20 04:14:54;;;;;;;3.55;3.22;;;;;;;;;;6243762;22;20174;-51
2024/03/20 04:17:21;;;;;;;3.47;3.17;;;;;;;;;;6244038;22;20195;-49
2024/03/20 04:19:49;;;;;;;4.78;3.65;;;;;;;;;;6244081;22;20705;-54
2024/03/20 04:22:17;;;;;;;3.70;3.40;;;;;;;;;;6243557;22;20200;-52
2024/03/20 04:24:46;;;;;;;4.07;3.67;;;;;;;;;;6244088;22;20173;-53
2024/03/20 04:27:15;;;;;;;4.43;3.83;;;;;;;;;;6243679;23;20207;-49
2024/03/20 04:29:42;;;;;;;3.72;3.42;;;;;;;;;;6244055;22;20173;-51
2024/03/20 04:32:10;;;;;;;3.75;3.35;;;;;;;;;;6242834;22;20177;-50
2024/03/20 04:34:37;;;;;;;4.03;3.60;;;;;;;;;;6243752;22;20181;-51
2024/03/20 04:37:05;;;;;;;4.35;3.95;;;;;;;;;;6243008;22;20169;-51
2024/03/20 04:39:35;;;;;;;4.22;3.65;;;;;;;;;;6243855;22;20615;-49
2024/03/20 04:42:04;;;;;;;4.25;3.85;;;;;;;;;;6243757;23;20265;-50
2024/03/20 04:44:31;;;;;;;3.40;3.10;;;;;;;;;;6243987;23;20224;-52
2024/03/20 04:46:58;;;;;;;3.25;2.95;;;;;;;;;;6243748;22;20196;-49
2024/03/20 04:49:26;;;;;;;3.88;3.42;;;;;;;;;;6243400;22;20694;-52
2024/03/20 04:51:53;;;;;;;4.53;3.50;;;;;;;;;;6243027;22;20173;-52
2024/03/20 04:54:21;;;;;;;5.40;3.85;;;;;;;;;;6243252;22;20208;-51
2024/03/20 04:56:50;;;;;;;4.60;3.92;;;;;;;;;;6243940;22;20638;-49
2024/03/20 04:59:17;;;;;;;4.47;4.07;;;;;;;;;;6241325;22;20172;-52
2024/03/20 05:01:45;;;;;;;3.63;3.28;;;;;;;;;;6243047;22;20256;-53
2024/03/20 05:04:13;;;;;;;5.35;4.85;;;;;;;;;;6243370;22;20223;-51
2024/03/20 05:06:40;;;;;;;4.03;3.72;;;;;;;;;;6243133;22;20219;-51
2024/03/20 05:09:07;;;;;;;4.97;4.15;;;;;;;;;;6243471;22;20196;-49
2024/03/20 05:11:35;;;;;;;5.07;4.57;;;;;;;;;;6243054;22;20199;-50
2024/03/20 05:14:04;;;;;;;6.13;5.03;;;;;;;;;;6243181;22;20173;-51
2024/03/20 05:16:32;;;;;;;5.47;4.97;;;;;;;;;;6243509;23;20176;-51
2024/03/20 05:18:58;;;;;;;6.30;5.25;;;;;;;;;;6242943;22;20203;-51
2024/03/20 05:21:26;;;;;;;9.88;5.00;;;;;;;;;;6243084;22;20252;-49
2024/03/20 05:23:52;;;;;;;5.57;5.07;;;;;;;;;;6242991;22;20173;-50
2024/03/20 05:26:19;;;;;;;5.22;4.32;;;;;;;;;;6242940;22;20243;-48
2024/03/20 05:28:46;;;;;;;4.32;3.63;;;;;;;;;;6243764;22;20272;-48
2024/03/20 05:31:28;;;;;;;4.30;3.60;;;;;;;;;;6243290;22;20180;-51
2024/03/20 05:33:54;;;;;;;3.38;3.13;;;;;;;;;;6244011;23;20180;-47
2024/03/20 05:36:22;;;;;;;3.85;3.55;;;;;;;;;;6243706;22;20626;-47
2024/03/20 05:38:49;;;;;;;4.03;3.72;;;;;;;;;;6244030;22;20199;-48
2024/03/20 05:41:16;;;;;;;4.20;3.47;;;;;;;;;;6243262;22;20632;-50
2024/03/20 05:43:43;;;;;;;4.15;3.85;;;;;;;;;;6243647;22;20626;-49
2024/03/20 05:46:10;;;;;;;3.67;3.38;;;;;;;;;;6243413;22;20188;-50
2024/03/20 05:48:38;;;;;;;4.63;4.13;;;;;;;;;;6243523;22;20205;-51
2024/03/20 05:51:07;;;;;;;5.57;4.97;;;;;;;;;;6243995;22;20260;-48
2024/03/20 05:53:33;;;;;;;3.30;3.00;;;;;;;;;;6243413;23;20235;-48
2024/03/20 05:56:01;;;;;;;3.40;3.10;;;;;;;;;;6243117;22;20181;-49
2024/03/20 05:58:28;;;;;;;5.18;4.32;;;;;;;;;;6243387;22;20193;-48
2024/03/20 06:00:55;;;;;;;4.10;3.80;;;;;;;;;;6243325;22;20179;-48
2024/03/20 06:03:22;;;;;;;4.10;3.70;;;;;;;;;;6244906;22;20173;-48
2024/03/20 06:05:51;;;;;;;3.58;3.25;;;;;;;;;;6245477;22;20681;-49
2024/03/20 06:08:18;;;;;;;3.25;2.95;;;;;;;;;;6245297;22;20227;-50
2024/03/20 06:10:45;;;;;;;3.10;2.80;;;;;;;;;;6245379;22;20476;-50
2024/03/20 06:13:12;;;;;;;3.50;3.20;;;;;;;;;;6244674;22;20184;-49
2024/03/20 06:15:38;;;;;;;3.72;3.38;;;;;;;;;;6244963;22;20255;-47
2024/03/20 06:18:07;;;;;;;3.42;3.00;;;;;;;;;;6244782;22;20189;-49
2024/03/20 06:20:33;;;;;;;2.95;2.75;;;;;;;;;;6245056;22;20689;-49
2024/03/20 06:23:02;;;;;;;3.00;2.70;;;;;;;;;;6244788;22;20173;-50
2024/03/20 06:25:28;;;;;;;4.20;3.20;;;;;;;;;;6244878;22;20195;-50
2024/03/20 06:27:56;;;;;;;3.80;3.45;;;;;;;;;;6244580;22;20540;-51
2024/03/20 06:30:25;;;;;;;3.78;3.47;;;;;;;;;;6244613;22;20256;-48
2024/03/20 06:32:53;;;;;;;3.88;3.55;;;;;;;;;;6245044;23;20179;-52
2024/03/20 06:35:20;;;;;;;4.47;3.97;;;;;;;;;;6245493;23;20575;-50
2024/03/20 06:37:47;;;;;;;8.52;4.63;;;;;;;;;;6245019;22;20558;-48
2024/03/20 06:40:16;;;;;;;6.70;4.20;;;;;;;;;;6245073;22;20173;-49
2024/03/20 06:42:44;;;;;;;5.00;4.50;;;;;;;;;;6244784;22;20177;-48
2024/03/20 06:45:10;;;;;;;4.40;4.07;;;;;;;;;;6245164;22;20173;-48
2024/03/20 06:47:38;;;;;;;5.82;4.80;;;;;;;;;;6244358;22;20783;-50
2024/03/20 06:50:08;;;;;;;5.32;4.40;;;;;;;;;;6244629;22;20180;-51
2024/03/20 06:52:38;;;;;;;5.57;5.03;;;;;;;;;;6245278;23;20587;-49
2024/03/20 06:55:07;;;;;;;5.43;4.78;;;;;;;;;;6244600;23;20272;-50
2024/03/20 06:57:36;;;;;;;6.95;5.25;;;;;;;;;;6245103;23;20193;-51
2024/03/20 07:00:07;;;;;;;5.13;4.40;;;;;;;;;;6244513;22;20173;-48
2024/03/20 07:02:34;;;;;;;5.55;4.82;;;;;;;;;;6244830;23;20165;-50
2024/03/20 07:05:01;;;;;;;6.00;4.95;;;;;;;;;;6244349;22;20173;-48
2024/03/20 07:07:29;;;;;;;5.18;4.68;;;;;;;;;;6243925;22;20574;-49
2024/03/20 07:09:55;;;;;;;5.63;5.13;;;;;;;;;;6244894;22;20177;-48
2024/03/20 07:12:23;;;;;;;4.90;4.45;;;;;;;;;;6244077;22;20177;-48
2024/03/20 07:14:51;;;;;;;6.70;5.88;;;;;;;;;;6244554;22;20183;-48
2024/03/20 07:17:19;;;;;;;4.60;4.20;;;;;;;;;;6243782;22;20215;-51
2024/03/20 07:19:47;;;;;;;7.88;4.70;;;;;;;;;;6244691;22;20635;-49
2024/03/20 07:22:17;;;;;;;4.82;4.43;;;;;;;;;;6244934;23;20173;-52
2024/03/20 07:24:44;;;;;;;5.72;4.82;;;;;;;;;;6244612;23;20169;-50
2024/03/20 07:27:11;;;;;;;5.00;3.88;;;;;;;;;;6244346;22;20535;-50
2024/03/20 07:29:38;;;;;;;4.85;4.18;;;;;;;;;;6244827;22;20173;-47
2024/03/20 07:32:09;;;;;;;5.28;4.78;;;;;;;;;;6244603;22;20197;-48
2024/03/20 07:34:36;;;;;;;5.43;4.72;;;;;;;;;;6245130;22;20165;-47
2024/03/20 07:37:04;;;;;;;4.70;4.30;;;;;;;;;;6243998;22;20177;-47
2024/03/20 07:39:33;;;;;;;5.32;4.82;;;;;;;;;;6244539;22;20524;-47
2024/03/20 07:42:03;;;;;;;4.68;4.28;;;;;;;;;;6244769;23;20681;-47
2024/03/20 07:44:29;;;;;;;6.55;5.95;;;;;;;;;;6244823;23;20565;-48
2024/03/20 07:46:57;;;;;;;6.65;5.45;;;;;;;;;;6244685;22;20181;-48
2024/03/20 07:49:25;;;;;;;5.78;5.15;;;;;;;;;;6244572;22;20224;-47
2024/03/20 07:51:53;;;;;;;6.20;5.40;;;;;;;;;;6244019;22;20557;-47
2024/03/20 07:54:23;;;;;;;6.65;6.05;;;;;;;;;;6244232;23;20217;-48
2024/03/20 07:56:52;;;;;;;7.72;6.68;;;;;;;;;;6244627;23;20181;-49
2024/03/20 07:59:18;;;;;;;6.53;5.90;;;;;;;;;;6244692;23;20637;-49
2024/03/20 08:01:46;;;;;;;6.22;5.63;;;;;;;;;;6243703;22;20256;-48
2024/03/20 08:04:13;;;;;;;5.20;4.65;;;;;;;;;;6244161;22;20169;-51
2024/03/20 08:06:42;;;;;;;9.95;8.38;;;;;;;;;;6244488;22;20181;-48
2024/03/20 08:09:09;;;;;;;8.80;7.07;;;;;;;;;;6243988;22;20200;-50
2024/03/20 08:11:37;;;;;;;9.02;8.15;;;;;;;;;;6244085;22;20191;-48
2024/03/20 08:14:08;;;;;;;7.95;7.15;;;;;;;;;;6244356;22;20503;-49
2024/03/20 08:16:36;;;;;;;9.73;8.38;;;;;;;;;;6244698;23;20590;-48
2024/03/20 08:19:03;;;;;;;7.88;6.90;;;;;;;;;;6244301;22;20211;-52
2024/03/20 08:21:30;;;;;;;7.20;5.95;;;;;;;;;;6243893;22;20181;-52
2024/03/20 08:23:59;;;;;;;6.25;5.68;;;;;;;;;;6243719;22;20179;-48
2024/03/20 08:26:26;;;;;;;6.28;5.68;;;;;;;;;;6243742;22;20177;-52
2024/03/20 08:28:53;;;;;;;9.73;6.88;;;;;;;;;;6244122;22;20288;-49
2024/03/20 08:31:21;;;;;;;6.65;5.40;;;;;;;;;;6243631;22;20177;-50
2024/03/20 08:33:48;;;;;;;6.70;5.50;;;;;;;;;;6244165;22;20256;-50
2024/03/20 08:36:16;;;;;;;5.70;5.03;;;;;;;;;;6244357;23;20183;-49
2024/03/20 08:38:45;;;;;;;5.75;5.15;;;;;;;;;;6243888;22;20600;-48
2024/03/20 08:41:15;;;;;;;5.20;4.70;;;;;;;;;;6244301;23;20174;-53
2024/03/20 08:43:41;;;;;;;5.88;5.30;;;;;;;;;;6244211;23;20563;-51
2024/03/20 08:46:10;;;;;;;5.22;4.53;;;;;;;;;;6243769;22;20251;-49
2024/03/20 08:48:36;;;;;;;3.63;3.33;;;;;;;;;;6244129;23;20201;-50
2024/03/20 08:51:05;;;;;;;5.13;4.38;;;;;;;;;;6244191;22;20174;-49
2024/03/20 08:53:32;;;;;;;5.50;5.00;;;;;;;;;;6243709;22;20536;-50
2024/03/20 08:56:00;;;;;;;5.38;4.72;;;;;;;;;;6243801;22;20211;-48
2024/03/20 08:58:27;;;;;;;6.38;5.10;;;;;;;;;;6243309;22;20503;-48
2024/03/20 09:00:57;;;;;;;8.50;6.10;;;;;;;;;;6244097;22;20173;-50
2024/03/20 09:03:23;;;;;;;6.93;6.22;;;;;;;;;;6244146;23;20203;-55
2024/03/20 09:05:51;;;;;;;5.55;4.50;;;;;;;;;;6243132;22;20251;-52
2024/03/20 09:08:17;;;;;;;5.80;4.13;;;;;;;;;;6243103;22;20201;-49
2024/03/20 09:10:45;;;;;;;4.35;3.95;;;;;;;;;;6242896;22;20215;-54
2024/03/20 09:13:11;;;;;;;5.68;4.90;;;;;;;;;;6243073;22;20181;-54
2024/03/20 09:15:40;;;;;;;5.50;4.88;;;;;;;;;;6243446;22;20642;-54
2024/03/20 09:18:07;;;;;;;6.25;5.45;;;;;;;;;;6243546;22;20197;-54
2024/03/20 09:20:40;;;;;;;6.50;5.25;;;;;;;;;;6243186;22;20230;-53
2024/03/20 09:23:07;;;;;;;10.23;6.05;;;;;;;;;;6243289;23;20164;-56
2024/03/20 09:25:34;;;;;;;5.53;4.45;;;;;;;;;;6243258;22;20530;-55
2024/03/20 09:28:01;;;;;;;5.90;5.20;;;;;;;;;;6242938;22;20276;-53
2024/03/20 09:30:28;;;;;;;5.82;5.13;;;;;;;;;;6242965;22;20698;-56
2024/03/20 09:32:57;;;;;;;4.45;4.05;;;;;;;;;;6242602;22;20180;-54
2024/03/20 09:35:24;;;;;;;4.45;4.05;;;;;;;;;;6243370;22;20177;-51
2024/03/20 09:37:50;;;;;;;4.85;4.45;;;;;;;;;;6245292;22;20538;-50
2024/03/20 09:40:22;;;;;;;4.78;4.05;;;;;;;;;;6245469;22;20223;-56
2024/03/20 09:42:50;;;;;;;5.63;5.00;;;;;;;;;;6245439;23;20240;-53
2024/03/20 09:45:19;;;;;;;5.88;5.25;;;;;;;;;;6244862;23;20173;-53
2024/03/20 09:47:48;;;;;;;5.38;4.80;;;;;;;;;;6245676;23;20197;-52
2024/03/20 09:50:18;;;;;;;5.22;3.55;;;;;;;;;;6245212;22;20657;-54
2024/03/20 09:52:45;;;;;;;4.63;3.70;;;;;;;;;;6245616;23;20268;-55
2024/03/20 09:55:15;;;;;;;5.28;4.45;;;;;;;;;;6245363;22;20181;-51
2024/03/20 09:57:44;;;;;;;4.47;3.97;;;;;;;;;;6245513;23;20224;-55
2024/03/20 10:00:16;;;;;;;3.95;3.65;;;;;;;;;;6245336;22;20176;-54
2024/03/20 10:02:44;;;;;;;3.90;3.60;;;;;;;;;;6245648;23;20165;-55
2024/03/20 10:05:13;;;;;;;6.15;5.35;;;;;;;;;;6245264;22;20180;-56
2024/03/20 10:07:42;;;;;;;4.70;4.30;;;;;;;;;;6245388;23;20216;-55
2024/03/20 10:10:14;;;;;;;6.80;6.10;;;;;;;;;;6244900;22;20197;-54
2024/03/20 10:12:40;;;;;;;4.65;4.10;;;;;;;;;;6245311;23;20215;-55
2024/03/20 10:15:09;;;;;;;5.55;4.95;;;;;;;;;;6244683;22;20239;-53
2024/03/20 10:17:36;;;;;;;4.70;4.22;;;;;;;;;;6245275;23;20276;-53
2024/03/20 10:20:05;;;;;;;3.78;3.47;;;;;;;;;;6244844;22;20243;-52
2024/03/20 10:22:33;;;;;;;5.10;4.60;;;;;;;;;;6244658;22;20462;-51
2024/03/20 10:25:01;;;;;;;5.50;5.03;;;;;;;;;;6244237;22;20185;-55
2024/03/20 10:27:28;;;;;;;5.53;4.13;;;;;;;;;;6244625;22;20276;-52
2024/03/20 10:29:57;;;;;;;6.07;4.22;;;;;;;;;;6245162;22;20193;-50
2024/03/20 10:32:23;;;;;;;4.35;3.97;;;;;;;;;;6244733;22;20654;-51
2024/03/20 10:34:53;;;;;;;5.03;4.55;;;;;;;;;;6244616;22;20630;-56
2024/03/20 10:37:21;;;;;;;6.18;4.78;;;;;;;;;;6244643;23;20196;-56
2024/03/20 10:39:50;;;;;;;6.47;5.05;;;;;;;;;;6244444;22;20223;-55
2024/03/20 10:42:19;;;;;;;5.30;4.05;;;;;;;;;;6245012;23;20184;-56
2024/03/20 10:44:46;;;;;;;4.15;3.75;;;;;;;;;;6245245;23;20575;-53
2024/03/20 10:47:13;;;;;;;3.83;3.28;;;;;;;;;;6244720;22;20808;-50
2024/03/20 10:49:41;;;;;;;7.68;4.97;;;;;;;;;;6244215;22;20276;-54
2024/03/20 10:52:11;;;;;;;5.10;4.60;;;;;;;;;;6244706;22;20256;-54
2024/03/20 10:54:38;;;;;;;3.60;3.30;;;;;;;;;;6244725;23;20235;-52
2024/03/20 10:57:06;;;;;;;3.53;3.30;;;;;;;;;;6244701;22;20183;-51
2024/03/20 10:59:35;;;;;;;5.88;3.42;;;;;;;;;;6244722;22;20259;-54
2024/03/20 11:02:03;;;;;;;4.50;3.72;;;;;;;;;;6244161;22;20235;-53
2024/03/20 11:04:37;;;;;;;3.55;3.25;;;;;;;;;;6244607;22;20179;-53
2024/03/20 11:07:35;;;;;;;4.60;3.72;;;;;;;;;;6244580;23;20161;-56
2024/03/20 11:10:20;;;;;;;3.72;3.42;;;;;;;;;;6244748;22;20714;-54
2024/03/20 11:12:47;;;;;;;3.83;3.30;;;;;;;;;;6244852;23;20637;-51
2024/03/20 11:15:18;;;;;;;3.55;3.22;;;;;;;;;;6244000;22;20183;-54
2024/03/20 11:17:51;;;;;;;3.33;2.92;;;;;;;;;;6244484;23;20197;-51
2024/03/20 11:20:43;;;;;;;2.72;2.53;;;;;;;;;;6244829;23;20534;-53
2024/03/20 11:23:22;;;;;;;2.00;1.80;;;;;;;;;;6244280;23;20681;-54
2024/03/20 11:25:50;;;;;;;1.60;1.50;;;;;;;;;;6244785;22;20167;-53
2024/03/20 11:28:16;;;;;;;2.22;1.85;;;;;;;;;;6244365;22;20202;-55
2024/03/20 11:30:46;;;;;;;3.15;2.95;;;;;;;;;;6244379;22;20665;-55
2024/03/20 11:33:13;;;;;;;3.17;2.80;;;;;;;;;;6244015;23;20177;-55
2024/03/20 11:35:41;;;;;;;1.90;1.65;;;;;;;;;;6244176;22;20177;-55
2024/03/20 11:38:13;;;;;;;1.95;1.85;;;;;;;;;;6243799;22;20192;-55
2024/03/20 11:40:41;;;;;;;1.75;1.65;;;;;;;;;;6244401;22;20614;-54
2024/03/20 11:43:09;;;;;;;2.05;1.85;;;;;;;;;;6243500;22;20177;-54
2024/03/20 11:45:37;;;;;;;1.42;1.33;;;;;;;;;;6244542;22;20180;-54
2024/03/20 11:48:06;;;;;;;1.70;1.60;;;;;;;;;;6243929;22;20537;-52
2024/03/20 11:50:36;;;;;;;1.70;1.58;;;;;;;;;;6243956;22;20197;-55
2024/03/20 11:53:02;;;;;;;2.33;2.13;;;;;;;;;;6244164;23;20208;-52
2024/03/20 11:55:30;;;;;;;3.35;2.22;;;;;;;;;;6243973;22;20223;-55
2024/03/20 11:57:59;;;;;;;1.77;1.67;;;;;;;;;;6244155;22;20534;-53
2024/03/20 12:00:27;;;;;;;2.47;2.00;;;;;;;;;;6243962;22;20169;-55
2024/03/20 12:02:54;;;;;;;2.20;2.03;;;;;;;;;;6243830;22;20856;-55
2024/03/20 12:05:26;;;;;;;2.17;1.98;;;;;;;;;;6243494;22;20252;-56
2024/03/20 12:07:56;;;;;;;2.42;2.22;;;;;;;;;;6243789;23;20196;-54
2024/03/20 12:10:36;;;;;;;2.60;2.22;;;;;;;;;;6243877;23;20234;-56
2024/03/20 12:13:03;;;;;;;2.35;2.15;;;;;;;;;;6244579;22;20193;-51
2024/03/20 12:15:31;;;;;;;2.50;2.30;;;;;;;;;;6244146;23;20175;-53
2024/03/20 12:17:57;;;;;;;2.90;2.65;;;;;;;;;;6244270;22;20653;-50
2024/03/20 12:20:26;;;;;;;3.25;2.72;;;;;;;;;;6243700;22;20183;-51
2024/03/20 12:22:53;;;;;;;2.17;1.98;;;;;;;;;;6244069;22;20179;-52
2024/03/20 12:25:21;;;;;;;2.88;2.45;;;;;;;;;;6244075;22;20264;-56
2024/03/20 12:27:48;;;;;;;2.35;2.15;;;;;;;;;;6244051;22;20193;-50
2024/03/20 12:30:15;;;;;;;2.67;2.40;;;;;;;;;;6242908;22;20539;-54
2024/03/20 12:32:42;;;;;;;2.20;2.00;;;;;;;;;;6243254;22;20506;-56
2024/03/20 12:35:11;;;;;;;2.15;1.95;;;;;;;;;;6243558;22;20173;-55
2024/03/20 12:37:39;;;;;;;2.00;1.90;;;;;;;;;;6243953;23;20666;-56
2024/03/20 12:40:09;;;;;;;1.90;1.80;;;;;;;;;;6243894;22;20666;-56
2024/03/20 12:42:36;;;;;;;1.85;1.75;;;;;;;;;;6244017;23;20157;-53
2024/03/20 12:45:06;;;;;;;2.45;2.25;;;;;;;;;;6243038;22;20173;-55
2024/03/20 12:47:32;;;;;;;3.65;2.15;;;;;;;;;;6243941;22;20197;-54
2024/03/20 12:49:59;;;;;;;1.85;1.75;;;;;;;;;;6243324;22;20196;-55
2024/03/20 12:52:28;;;;;;;3.05;2.75;;;;;;;;;;6243415;22;20173;-52
2024/03/20 12:54:58;;;;;;;3.53;2.78;;;;;;;;;;6243778;23;20192;-54
2024/03/20 12:57:25;;;;;;;3.40;3.10;;;;;;;;;;6243826;22;20262;-50
2024/03/20 12:59:52;;;;;;;3.47;2.72;;;;;;;;;;6243419;22;20177;-54
2024/03/20 13:02:19;;;;;;;3.15;2.92;;;;;;;;;;6242699;22;20185;-55
2024/03/20 13:04:47;;;;;;;3.15;2.40;;;;;;;;;;6243831;22;20663;-56
2024/03/20 13:07:15;;;;;;;1.70;1.60;;;;;;;;;;6243365;22;20295;-53
2024/03/20 13:09:45;;;;;;;2.35;2.15;;;;;;;;;;6243209;22;20311;-52
2024/03/20 13:12:14;;;;;;;3.25;2.85;;;;;;;;;;6245588;23;20177;-55
2024/03/20 13:14:42;;;;;;;2.78;2.03;;;;;;;;;;6245729;22;20187;-55
2024/03/20 13:17:14;;;;;;;6.97;3.05;;;;;;;;;;6245482;22;20193;-52
2024/03/20 13:19:41;;;;;;;2.65;2.45;;;;;;;;;;6246260;23;20235;-55
2024/03/20 13:22:17;;;;;;;3.15;2.85;;;;;;;;;;6245787;22;20509;-54
2024/03/20 13:24:45;;;;;;;2.53;2.33;;;;;;;;;;6246084;22;20157;-54
2024/03/20 13:27:14;;;;;;;2.78;2.47;;;;;;;;;;6245565;22;20661;-56
2024/03/20 13:29:46;;;;;;;3.58;3.28;;;;;;;;;;6245330;22;20644;-54
2024/03/20 13:32:18;;;;;;;2.97;2.28;;;;;;;;;;6245310;22;20192;-54
2024/03/20 13:34:47;;;;;;;4.55;2.30;;;;;;;;;;6245950;23;20168;-55
2024/03/20 13:37:16;;;;;;;3.60;3.00;;;;;;;;;;6245628;22;20677;-56
2024/03/20 13:39:49;;;;;;;2.80;2.60;;;;;;;;;;6246023;23;20804;-55
2024/03/20 13:42:33;;;;;;;2.30;2.17;;;;;;;;;;6245362;23;20158;-53
2024/03/20 13:45:01;;;;;;;1.90;1.80;;;;;;;;;;6245967;23;20185;-54
2024/03/20 13:47:28;;;;;;;2.10;1.88;;;;;;;;;;6245236;23;20204;-56
2024/03/20 13:49:55;;;;;;;2.25;2.00;;;;;;;;;;6245026;22;20177;-51
2024/03/20 13:52:22;;;;;;;2.92;2.72;;;;;;;;;;6244682;22;20685;-54
2024/03/20 13:54:50;;;;;;;2.85;2.65;;;;;;;;;;6244541;22;20181;-52
2024/03/20 13:57:18;;;;;;;2.53;2.40;;;;;;;;;;6245620;23;20193;-53
2024/03/20 13:59:46;;;;;;;3.42;3.13;;;;;;;;;;6245336;22;20511;-52
2024/03/20 14:02:25;;;;;;;2.40;2.20;;;;;;;;;;6245363;22;20200;-51
2024/03/20 14:04:53;;;;;;;2.75;2.42;;;;;;;;;;6245336;22;20233;-53
2024/03/20 14:07:22;;;;;;;3.05;2.10;;;;;;;;;;6244984;23;20197;-52
2024/03/20 14:09:49;;;;;;;2.10;2.00;;;;;;;;;;6245097;22;20184;-52
2024/03/20 14:12:18;;;;;;;2.50;2.22;;;;;;;;;;6245147;22;20205;-53
2024/03/20 14:14:46;;;;;;;1.63;1.52;;;;;;;;;;6245291;22;20255;-56
2024/03/20 14:17:17;;;;;;;1.92;1.83;;;;;;;;;;6244631;22;20279;-56
2024/03/20 14:19:45;;;;;;;2.58;2.35;;;;;;;;;;6245191;23;20154;-56
2024/03/20 14:22:13;;;;;;;3.60;2.40;;;;;;;;;;6244297;23;20177;-51
2024/03/20 14:24:41;;;;;;;2.28;2.00;;;;;;;;;;6245126;22;20179;-56
2024/03/20 14:27:13;;;;;;;4.00;3.38;;;;;;;;;;6245241;22;20201;-52
2024/03/20 14:29:43;;;;;;;2.53;2.10;;;;;;;;;;6245162;22;20940;-56
2024/03/20 14:32:13;;;;;;;3.03;2.72;;;;;;;;;;6244562;22;20193;-55
2024/03/20 14:34:40;;;;;;;2.67;2.47;;;;;;;;;;6245022;23;20251;-52
2024/03/20 14:37:09;;;;;;;2.97;2.78;;;;;;;;;;6244863;22;20177;-55
2024/03/20 14:39:36;;;;;;;2.40;2.30;;;;;;;;;;6245102;23;20173;-55
2024/03/20 14:42:06;;;;;;;3.15;2.20;;;;;;;;;;6244771;22;20176;-53
2024/03/20 14:44:33;;;;;;;2.30;2.10;;;;;;;;;;6245308;23;20237;-54
2024/03/20 14:47:02;;;;;;;2.95;2.75;;;;;;;;;;6244392;22;20173;-53
2024/03/20 14:49:28;;;;;;;2.80;2.60;;;;;;;;;;6245043;22;20201;-52